Wellston, MI (49689)

7:10 AM EST on March 05, 2015 (GMT -0500)
APRSWXNET Wellston MI US | Change Station
CLOSE
Current Station
Personal Weather Station
Location: Wellston, MI
Elevation: 774 ft
Nearby Weather Stations

Elev 774 ft 44.23 °N, 85.96 °W | Updated 37 minutes ago

Mostly Cloudy
Mostly Cloudy
-7 °F
Feels Like -7 °F
N
0
Wind Variable Wind from NNE
Gusts 0.0 mph

Today
High -- | Low -- °F
--% Chance of Precip.
Yesterday
High -- | Low -- °F
Precip. -- in
7:14 AM 6:36 PM
Full, 100% visible
Pressure 30.36 in
Visibility 3.0 miles
Clouds Few 1400 ft
Mostly Cloudy 1900 ft
Windchill -7 °F
Dew Point -11 °F
Humidity 84%
Rainfall in
Snow Depth Not available.
UV 0 out of 12
Pollen .40 out of 12
Air Quality Not available.
Flu Activity Not available.
METAR KMBL 051155Z AUTO 14003KT 3SM FEW014 BKN019 M15/M18 A3036 RMK AO1 11120 21150 52010

More Conditions Fewer Conditions

Pressure 30.36 in
Visibility 3.0 miles
Clouds Few 1400 ft
Mostly Cloudy 1900 ft
Windchill -7 °F
Dew Point -11 °F
Humidity 84%
Rainfall in
Snow Depth Not available.
UV 0 out of 12
Pollen .40 out of 12
Air Quality Not available.
Flu Activity Not available.
METAR KMBL 051155Z AUTO 14003KT 3SM FEW014 BKN019 M15/M18 A3036 RMK AO1 11120 21150 52010

More Conditions Fewer Conditions

Nowcast | as of 7:00 am EST on March 5, 2015

At 8 am...mostly cloudy. Scattered snow showers. Temperature 8 above. Light winds. At 10 am...mostly cloudy. Scattered snow showers. Temperature 10 above. Light winds. At 12 PM...mostly cloudy. Scattered snow showers. Temperature 11. Northwest winds 6 mph. At 2 PM...mostly cloudy. Scattered snow showers. Temperature 13. West winds 8 mph.

×

10-Day Weather Forecast

Almanac

Astronomy

Mar. 05, 2015 Rise Set
Actual Time
Civil Twilight
Nautical Twilight
Astronomical Twilight
Moon
Length of Visible Light
Length of Day
Tomorrow will be .
, % of the Moon is Illuminated

Today's Extremes

State Highs State Lows

Community

WunderPhotos

Upload Photos

1,802,716 photos uploaded!

WunderBlogs® & News

Nearby

Air Quality

  Air Quality AQ Index Pollutant
Not available.

Snow Depth

Station Depth Elevation

Earthquake Activity

City Distance Mag. Time & Date
Minimum magnitude displayed is 2.5.

Coastal Water Temperatures

Place Temperature

Nearby Weather Stations